sensor_id;sensor_type;location;lat;lon;timestamp;noise_LAeq;noise_LA_min;noise_LA_max;noise_LA01;noise_LA95
1754;Laerm;58380;48.312;9.246;2024-01-15T07:24:39;42.94;33.28;54.27;;
1754;Laerm;58380;48.312;9.246;2024-01-15T07:27:41;43.92;34.88;61.10;;
1754;Laerm;58380;48.312;9.246;2024-01-15T07:30:44;44.89;31.68;56.98;;
1754;Laerm;58380;48.312;9.246;2024-01-15T07:33:45;43.52;31.54;54.47;;
1754;Laerm;58380;48.312;9.246;2024-01-15T07:36:46;44.50;35.36;55.00;;
1754;Laerm;58380;48.312;9.246;2024-01-15T07:39:47;43.45;34.61;55.38;;
1754;Laerm;58380;48.312;9.246;2024-01-15T07:42:47;42.50;31.74;56.81;;
1754;Laerm;58380;48.312;9.246;2024-01-15T07:45:50;43.31;32.84;58.81;;
1754;Laerm;58380;48.312;9.246;2024-01-15T07:48:54;43.32;31.09;61.21;;
1754;Laerm;58380;48.312;9.246;2024-01-15T07:51:57;42.86;32.26;54.95;;
1754;Laerm;58380;48.312;9.246;2024-01-15T07:54:58;41.63;34.56;50.11;;
1754;Laerm;58380;48.312;9.246;2024-01-15T07:58:03;44.35;34.34;62.64;;
1754;Laerm;58380;48.312;9.246;2024-01-15T08:01:04;47.81;34.44;64.63;;
1754;Laerm;58380;48.312;9.246;2024-01-15T08:04:06;41.86;30.87;51.61;;
1754;Laerm;58380;48.312;9.246;2024-01-15T08:07:09;41.95;30.68;55.09;;
1754;Laerm;58380;48.312;9.246;2024-01-15T08:10:09;41.18;31.45;50.19;;
1754;Laerm;58380;48.312;9.246;2024-01-15T08:13:10;47.05;34.48;62.87;;
1754;Laerm;58380;48.312;9.246;2024-01-15T08:16:10;39.15;31.03;51.89;;
1754;Laerm;58380;48.312;9.246;2024-01-15T08:19:11;43.84;33.07;55.30;;
1754;Laerm;58380;48.312;9.246;2024-01-15T08:22:11;43.14;34.90;53.30;;
1754;Laerm;58380;48.312;9.246;2024-01-15T08:25:11;43.51;34.57;56.62;;
1754;Laerm;58380;48.312;9.246;2024-01-15T08:28:13;50.99;33.26;63.99;;
1754;Laerm;58380;48.312;9.246;2024-01-15T08:31:13;42.53;32.19;56.97;;
1754;Laerm;58380;48.312;9.246;2024-01-15T08:34:14;45.93;33.68;59.05;;
1754;Laerm;58380;48.312;9.246;2024-01-15T08:37:14;41.66;31.45;59.59;;
1754;Laerm;58380;48.312;9.246;2024-01-15T08:40:16;41.93;31.34;54.52;;
1754;Laerm;58380;48.312;9.246;2024-01-15T08:43:16;41.52;31.87;63.85;;
1754;Laerm;58380;48.312;9.246;2024-01-15T08:46:17;50.68;31.08;80.09;;
1754;Laerm;58380;48.312;9.246;2024-01-15T08:49:17;45.66;32.47;71.33;;
1754;Laerm;58380;48.312;9.246;2024-01-15T08:52:18;46.08;36.29;57.31;;
1754;Laerm;58380;48.312;9.246;2024-01-15T08:55:18;41.75;32.55;51.43;;
1754;Laerm;58380;48.312;9.246;2024-01-15T08:58:19;43.91;34.82;54.76;;
1754;Laerm;58380;48.312;9.246;2024-01-15T09:01:19;44.05;35.61;57.04;;
1754;Laerm;58380;48.312;9.246;2024-01-15T09:04:20;43.47;32.82;58.11;;
1754;Laerm;58380;48.312;9.246;2024-01-15T09:07:20;42.20;33.56;55.51;;
1754;Laerm;58380;48.312;9.246;2024-01-15T09:10:21;43.34;34.38;57.32;;
1754;Laerm;58380;48.312;9.246;2024-01-15T09:13:21;41.34;31.60;59.34;;
1754;Laerm;58380;48.312;9.246;2024-01-15T09:16:21;45.19;35.12;61.47;;
1754;Laerm;58380;48.312;9.246;2024-01-15T09:19:22;42.66;32.38;56.40;;
1754;Laerm;58380;48.312;9.246;2024-01-15T09:22:22;43.35;33.69;60.11;;
1754;Laerm;58380;48.312;9.246;2024-01-15T09:25:23;42.67;33.11;54.21;;
1754;Laerm;58380;48.312;9.246;2024-01-15T09:28:23;43.70;33.51;56.52;;
1754;Laerm;58380;48.312;9.246;2024-01-15T09:31:23;44.37;34.53;58.86;;
1754;Laerm;58380;48.312;9.246;2024-01-15T09:34:24;44.78;34.14;62.83;;
1754;Laerm;58380;48.312;9.246;2024-01-15T09:37:24;42.34;32.88;54.52;;
1754;Laerm;58380;48.312;9.246;2024-01-15T09:40:31;43.16;31.82;58.28;;
1754;Laerm;58380;48.312;9.246;2024-01-15T09:43:33;41.96;35.24;50.16;;
1754;Laerm;58380;48.312;9.246;2024-01-15T09:46:35;42.03;33.19;57.73;;
1754;Laerm;58380;48.312;9.246;2024-01-15T09:49:35;42.74;35.56;58.54;;
1754;Laerm;58380;48.312;9.246;2024-01-15T09:52:36;42.90;34.17;66.09;;
1754;Laerm;58380;48.312;9.246;2024-01-15T09:55:37;42.93;36.21;59.13;;
1754;Laerm;58380;48.312;9.246;2024-01-15T09:58:41;41.70;35.01;51.66;;
1754;Laerm;58380;48.312;9.246;2024-01-15T10:01:44;42.60;34.94;53.50;;
1754;Laerm;58380;48.312;9.246;2024-01-15T10:04:45;42.58;34.93;56.44;;
1754;Laerm;58380;48.312;9.246;2024-01-15T10:07:47;43.36;36.05;58.50;;
1754;Laerm;58380;48.312;9.246;2024-01-15T10:10:50;40.86;32.23;51.35;;
1754;Laerm;58380;48.312;9.246;2024-01-15T10:13:51;42.61;32.26;55.18;;
1754;Laerm;58380;48.312;9.246;2024-01-15T10:16:53;44.13;34.84;57.50;;
1754;Laerm;58380;48.312;9.246;2024-01-15T10:19:53;43.47;33.97;57.04;;
1754;Laerm;58380;48.312;9.246;2024-01-15T10:22:55;44.26;35.42;56.90;;
1754;Laerm;58380;48.312;9.246;2024-01-15T10:25:57;42.93;34.17;53.85;;
1754;Laerm;58380;48.312;9.246;2024-01-15T10:29:01;42.76;33.45;54.93;;
1754;Laerm;58380;48.312;9.246;2024-01-15T10:32:05;50.33;34.30;76.43;;
1754;Laerm;58380;48.312;9.246;2024-01-15T10:35:07;57.57;35.74;80.12;;
1754;Laerm;58380;48.312;9.246;2024-01-15T10:38:08;50.67;35.80;73.05;;
1754;Laerm;58380;48.312;9.246;2024-01-15T10:41:09;45.12;32.95;62.25;;
1754;Laerm;58380;48.312;9.246;2024-01-15T10:44:10;44.24;34.50;63.23;;
1754;Laerm;58380;48.312;9.246;2024-01-15T10:47:11;44.09;34.70;54.09;;
1754;Laerm;58380;48.312;9.246;2024-01-15T10:50:12;41.03;32.52;57.03;;
1754;Laerm;58380;48.312;9.246;2024-01-15T10:53:16;52.46;33.65;75.94;;
1754;Laerm;58380;48.312;9.246;2024-01-15T10:56:18;64.67;58.73;80.20;;
1754;Laerm;58380;48.312;9.246;2024-01-15T10:59:20;63.38;34.24;82.05;;
1754;Laerm;58380;48.312;9.246;2024-01-15T11:02:23;62.40;34.31;90.50;;
1754;Laerm;58380;48.312;9.246;2024-01-15T11:05:25;44.26;37.75;58.42;;
1754;Laerm;58380;48.312;9.246;2024-01-15T11:08:26;44.45;36.07;70.29;;
1754;Laerm;58380;48.312;9.246;2024-01-15T11:11:26;41.96;32.94;63.56;;
1754;Laerm;58380;48.312;9.246;2024-01-15T11:14:40;42.20;34.03;55.05;;
1754;Laerm;58380;48.312;9.246;2024-01-15T11:18:01;42.70;34.70;54.83;;
1754;Laerm;58380;48.312;9.246;2024-01-15T11:24:40;43.57;33.61;55.61;;
1754;Laerm;58380;48.312;9.246;2024-01-15T11:30:42;54.02;35.75;78.51;;
1754;Laerm;58380;48.312;9.246;2024-01-15T11:33:49;43.06;35.44;56.90;;
1754;Laerm;58380;48.312;9.246;2024-01-15T11:39:56;43.72;34.24;55.13;;
1754;Laerm;58380;48.312;9.246;2024-01-15T11:43:00;42.73;37.23;52.36;;
1754;Laerm;58380;48.312;9.246;2024-01-15T11:46:02;42.30;36.80;54.76;;
1754;Laerm;58380;48.312;9.246;2024-01-15T11:49:04;43.43;36.48;61.14;;
1754;Laerm;58380;48.312;9.246;2024-01-15T11:52:06;41.81;35.73;55.01;;
1754;Laerm;58380;48.312;9.246;2024-01-15T11:55:29;41.83;35.95;49.46;;
1754;Laerm;58380;48.312;9.246;2024-01-15T11:58:30;41.21;34.85;54.32;;
1754;Laerm;58380;48.312;9.246;2024-01-15T12:01:31;43.62;34.77;53.77;;
1754;Laerm;58380;48.312;9.246;2024-01-15T12:04:32;43.24;37.07;52.54;;
1754;Laerm;58380;48.312;9.246;2024-01-15T12:07:32;41.56;35.35;58.44;;
1754;Laerm;58380;48.312;9.246;2024-01-15T12:10:32;43.21;37.35;53.38;;
1754;Laerm;58380;48.312;9.246;2024-01-15T12:13:33;41.70;35.93;53.56;;
1754;Laerm;58380;48.312;9.246;2024-01-15T12:16:33;43.02;36.06;52.68;;
1754;Laerm;58380;48.312;9.246;2024-01-15T12:19:34;42.99;36.94;54.14;;
1754;Laerm;58380;48.312;9.246;2024-01-15T12:22:34;48.32;36.78;63.38;;
1754;Laerm;58380;48.312;9.246;2024-01-15T12:25:35;44.02;37.17;55.11;;
1754;Laerm;58380;48.312;9.246;2024-01-15T12:28:36;42.56;35.82;54.66;;
1754;Laerm;58380;48.312;9.246;2024-01-15T12:31:37;49.76;36.21;81.58;;
1754;Laerm;58380;48.312;9.246;2024-01-15T12:34:37;42.70;35.96;64.40;;
1754;Laerm;58380;48.312;9.246;2024-01-15T12:37:43;41.72;35.10;63.17;;
1754;Laerm;58380;48.312;9.246;2024-01-15T12:40:43;42.11;34.45;52.62;;
1754;Laerm;58380;48.312;9.246;2024-01-15T12:43:46;42.33;35.17;57.25;;
1754;Laerm;58380;48.312;9.246;2024-01-15T12:46:47;43.15;36.05;53.62;;
1754;Laerm;58380;48.312;9.246;2024-01-15T12:49:48;44.03;37.41;70.59;;
1754;Laerm;58380;48.312;9.246;2024-01-15T12:52:53;42.39;36.63;52.39;;
1754;Laerm;58380;48.312;9.246;2024-01-15T12:55:54;40.68;33.12;48.02;;
1754;Laerm;58380;48.312;9.246;2024-01-15T12:58:54;46.65;36.51;67.77;;
1754;Laerm;58380;48.312;9.246;2024-01-15T13:01:55;41.30;35.09;54.55;;
1754;Laerm;58380;48.312;9.246;2024-01-15T13:04:55;41.91;34.37;55.88;;
1754;Laerm;58380;48.312;9.246;2024-01-15T13:07:56;42.61;36.05;55.12;;
1754;Laerm;58380;48.312;9.246;2024-01-15T13:10:57;42.80;35.03;50.86;;
1754;Laerm;58380;48.312;9.246;2024-01-15T13:13:57;42.58;38.47;58.55;;
1754;Laerm;58380;48.312;9.246;2024-01-15T13:16:58;43.27;35.54;55.34;;
1754;Laerm;58380;48.312;9.246;2024-01-15T13:19:59;43.60;35.87;57.83;;
1754;Laerm;58380;48.312;9.246;2024-01-15T13:23:00;42.80;35.97;53.38;;
1754;Laerm;58380;48.312;9.246;2024-01-15T13:26:00;42.01;35.28;52.37;;
1754;Laerm;58380;48.312;9.246;2024-01-15T13:29:01;43.56;37.34;55.56;;
1754;Laerm;58380;48.312;9.246;2024-01-15T13:32:02;43.89;35.82;55.16;;
1754;Laerm;58380;48.312;9.246;2024-01-15T13:35:03;42.03;36.94;52.59;;
1754;Laerm;58380;48.312;9.246;2024-01-15T13:38:06;42.92;36.52;60.48;;
1754;Laerm;58380;48.312;9.246;2024-01-15T13:41:06;43.58;36.86;54.70;;
1754;Laerm;58380;48.312;9.246;2024-01-15T13:44:06;42.63;35.42;52.60;;
1754;Laerm;58380;48.312;9.246;2024-01-15T13:47:07;43.66;35.15;66.53;;
1754;Laerm;58380;48.312;9.246;2024-01-15T13:50:08;44.64;36.78;57.13;;
1754;Laerm;58380;48.312;9.246;2024-01-15T13:53:08;43.87;36.55;58.82;;
1754;Laerm;58380;48.312;9.246;2024-01-15T13:56:09;43.31;33.54;60.26;;
1754;Laerm;58380;48.312;9.246;2024-01-15T13:59:11;50.44;34.78;72.67;;
1754;Laerm;58380;48.312;9.246;2024-01-15T14:02:11;42.48;36.81;54.70;;
1754;Laerm;58380;48.312;9.246;2024-01-15T14:05:12;45.54;38.32;60.35;;
1754;Laerm;58380;48.312;9.246;2024-01-15T14:08:12;44.27;37.16;56.17;;
1754;Laerm;58380;48.312;9.246;2024-01-15T14:11:13;44.52;37.35;55.54;;
1754;Laerm;58380;48.312;9.246;2024-01-15T14:14:14;41.41;35.66;51.52;;
1754;Laerm;58380;48.312;9.246;2024-01-15T14:17:14;45.93;37.25;56.13;;
1754;Laerm;58380;48.312;9.246;2024-01-15T14:20:15;41.93;36.49;50.24;;
1754;Laerm;58380;48.312;9.246;2024-01-15T14:23:15;43.28;36.94;54.53;;
1754;Laerm;58380;48.312;9.246;2024-01-15T14:26:16;41.93;35.05;52.62;;
1754;Laerm;58380;48.312;9.246;2024-01-15T14:29:16;40.90;34.68;54.45;;
1754;Laerm;58380;48.312;9.246;2024-01-15T14:32:18;48.23;37.41;62.53;;
1754;Laerm;58380;48.312;9.246;2024-01-15T14:35:19;41.90;36.24;56.57;;
1754;Laerm;58380;48.312;9.246;2024-01-15T14:38:19;42.30;36.41;50.40;;
1754;Laerm;58380;48.312;9.246;2024-01-15T14:41:20;43.39;34.85;54.26;;
1754;Laerm;58380;48.312;9.246;2024-01-15T14:44:20;42.78;36.62;55.07;;
1754;Laerm;58380;48.312;9.246;2024-01-15T14:47:21;44.23;35.16;54.77;;
1754;Laerm;58380;48.312;9.246;2024-01-15T14:50:24;43.48;38.41;52.89;;
1754;Laerm;58380;48.312;9.246;2024-01-15T14:53:25;45.30;34.30;54.47;;
1754;Laerm;58380;48.312;9.246;2024-01-15T14:56:25;42.44;34.54;56.34;;
1754;Laerm;58380;48.312;9.246;2024-01-15T14:59:26;45.61;37.14;75.61;;
1754;Laerm;58380;48.312;9.246;2024-01-15T15:02:29;43.12;34.93;53.96;;
1754;Laerm;58380;48.312;9.246;2024-01-15T15:05:29;39.34;33.22;54.58;;
1754;Laerm;58380;48.312;9.246;2024-01-15T15:08:29;46.81;38.23;63.73;;
1754;Laerm;58380;48.312;9.246;2024-01-15T15:11:30;44.44;38.25;53.64;;
1754;Laerm;58380;48.312;9.246;2024-01-15T15:14:31;44.81;38.05;54.21;;
1754;Laerm;58380;48.312;9.246;2024-01-15T15:17:37;43.92;36.87;53.45;;
1754;Laerm;58380;48.312;9.246;2024-01-15T15:20:38;42.92;35.87;51.90;;
1754;Laerm;58380;48.312;9.246;2024-01-15T15:23:38;42.39;37.38;52.88;;
1754;Laerm;58380;48.312;9.246;2024-01-15T15:26:39;40.18;32.24;53.92;;
1754;Laerm;58380;48.312;9.246;2024-01-15T15:29:39;41.69;31.85;53.88;;
1754;Laerm;58380;48.312;9.246;2024-01-15T15:32:40;40.60;33.81;59.87;;
1754;Laerm;58380;48.312;9.246;2024-01-15T15:35:40;46.20;32.25;60.92;;
1754;Laerm;58380;48.312;9.246;2024-01-15T15:38:40;43.16;34.37;62.90;;
1754;Laerm;58380;48.312;9.246;2024-01-15T15:41:42;38.99;33.50;51.27;;
1754;Laerm;58380;48.312;9.246;2024-01-15T15:44:42;38.41;33.50;54.51;;
1754;Laerm;58380;48.312;9.246;2024-01-15T15:47:46;37.05;32.38;48.27;;
1754;Laerm;58380;48.312;9.246;2024-01-15T15:50:46;38.40;31.04;52.28;;
1754;Laerm;58380;48.312;9.246;2024-01-15T15:53:47;48.48;32.17;71.67;;
1754;Laerm;58380;48.312;9.246;2024-01-15T15:56:47;36.35;32.35;50.37;;
1754;Laerm;58380;48.312;9.246;2024-01-15T15:59:50;36.78;32.44;45.04;;
1754;Laerm;58380;48.312;9.246;2024-01-15T16:02:50;38.45;33.11;60.88;;
1754;Laerm;58380;48.312;9.246;2024-01-15T16:05:51;38.47;33.22;48.27;;
1754;Laerm;58380;48.312;9.246;2024-01-15T16:08:51;42.36;35.53;57.02;;
1754;Laerm;58380;48.312;9.246;2024-01-15T16:11:52;38.28;33.96;54.88;;
1754;Laerm;58380;48.312;9.246;2024-01-15T16:14:52;37.30;33.96;46.38;;
1754;Laerm;58380;48.312;9.246;2024-01-15T16:17:52;35.91;32.54;44.93;;
1754;Laerm;58380;48.312;9.246;2024-01-15T16:20:53;36.97;32.65;51.09;;
1754;Laerm;58380;48.312;9.246;2024-01-15T16:23:53;39.50;33.11;49.56;;
1754;Laerm;58380;48.312;9.246;2024-01-15T16:26:54;42.93;32.82;56.99;;
1754;Laerm;58380;48.312;9.246;2024-01-15T16:29:54;39.17;33.20;51.70;;
1754;Laerm;58380;48.312;9.246;2024-01-15T16:32:55;45.55;32.71;60.67;;
1754;Laerm;58380;48.312;9.246;2024-01-15T16:35:55;50.15;32.54;67.89;;
1754;Laerm;58380;48.312;9.246;2024-01-15T16:38:57;38.66;33.98;53.62;;
1754;Laerm;58380;48.312;9.246;2024-01-15T16:41:58;39.85;33.46;49.86;;
1754;Laerm;58380;48.312;9.246;2024-01-15T16:44:58;38.39;33.43;49.76;;
1754;Laerm;58380;48.312;9.246;2024-01-15T16:47:58;39.23;32.37;55.05;;
1754;Laerm;58380;48.312;9.246;2024-01-15T16:50:59;44.28;35.77;60.41;;
1754;Laerm;58380;48.312;9.246;2024-01-15T16:54:00;42.25;33.62;50.30;;
1754;Laerm;58380;48.312;9.246;2024-01-15T16:57:01;44.23;36.15;54.86;;
1754;Laerm;58380;48.312;9.246;2024-01-15T17:00:01;39.52;33.64;54.24;;
1754;Laerm;58380;48.312;9.246;2024-01-15T17:03:02;44.68;36.31;60.25;;
1754;Laerm;58380;48.312;9.246;2024-01-15T17:06:03;42.90;36.56;57.46;;
1754;Laerm;58380;48.312;9.246;2024-01-15T17:09:05;38.32;33.94;51.55;;
1754;Laerm;58380;48.312;9.246;2024-01-15T17:12:07;37.93;33.31;46.34;;
1754;Laerm;58380;48.312;9.246;2024-01-15T17:15:08;41.40;33.30;55.66;;
1754;Laerm;58380;48.312;9.246;2024-01-15T17:18:08;38.73;32.96;52.11;;
1754;Laerm;58380;48.312;9.246;2024-01-15T17:21:09;38.96;33.67;48.55;;
1754;Laerm;58380;48.312;9.246;2024-01-15T17:24:09;39.58;33.31;46.51;;
1754;Laerm;58380;48.312;9.246;2024-01-15T17:27:10;44.07;34.63;57.05;;
1754;Laerm;58380;48.312;9.246;2024-01-15T17:30:10;45.34;37.29;57.22;;
1754;Laerm;58380;48.312;9.246;2024-01-15T17:33:12;45.64;36.64;58.61;;
1754;Laerm;58380;48.312;9.246;2024-01-15T17:36:12;46.54;37.42;62.74;;
1754;Laerm;58380;48.312;9.246;2024-01-15T17:39:13;46.61;37.89;61.39;;
1754;Laerm;58380;48.312;9.246;2024-01-15T17:42:14;43.94;36.53;57.17;;
1754;Laerm;58380;48.312;9.246;2024-01-15T17:45:16;40.63;34.72;60.46;;
1754;Laerm;58380;48.312;9.246;2024-01-15T17:48:18;39.78;34.61;48.26;;
1754;Laerm;58380;48.312;9.246;2024-01-15T17:51:19;41.42;35.68;62.00;;
1754;Laerm;58380;48.312;9.246;2024-01-15T17:54:19;42.49;34.96;62.70;;
1754;Laerm;58380;48.312;9.246;2024-01-15T17:57:20;43.77;34.88;62.25;;
1754;Laerm;58380;48.312;9.246;2024-01-15T18:00:20;40.70;32.84;59.00;;
1754;Laerm;58380;48.312;9.246;2024-01-15T18:03:20;39.12;32.40;59.14;;
1754;Laerm;58380;48.312;9.246;2024-01-15T18:06:21;37.11;32.96;46.56;;
1754;Laerm;58380;48.312;9.246;2024-01-15T18:09:21;37.36;32.08;53.65;;
1754;Laerm;58380;48.312;9.246;2024-01-15T18:12:24;35.48;31.50;45.66;;
1754;Laerm;58380;48.312;9.246;2024-01-15T18:15:24;41.29;32.56;64.58;;
1754;Laerm;58380;48.312;9.246;2024-01-15T18:18:25;38.17;31.70;56.66;;
1754;Laerm;58380;48.312;9.246;2024-01-15T18:21:26;36.52;31.07;46.95;;
1754;Laerm;58380;48.312;9.246;2024-01-15T18:24:26;36.73;32.53;46.35;;
1754;Laerm;58380;48.312;9.246;2024-01-15T18:27:27;35.66;30.87;47.65;;
1754;Laerm;58380;48.312;9.246;2024-01-15T18:30:28;36.30;31.40;47.95;;
1754;Laerm;58380;48.312;9.246;2024-01-15T18:33:28;35.10;31.11;45.23;;
1754;Laerm;58380;48.312;9.246;2024-01-15T18:36:29;36.87;31.83;49.13;;
1754;Laerm;58380;48.312;9.246;2024-01-15T18:39:29;36.09;31.24;46.73;;
1754;Laerm;58380;48.312;9.246;2024-01-15T18:42:29;38.35;33.00;54.64;;
1754;Laerm;58380;48.312;9.246;2024-01-15T18:45:30;37.66;32.48;48.10;;
1754;Laerm;58380;48.312;9.246;2024-01-15T18:48:30;35.71;31.48;43.49;;
1754;Laerm;58380;48.312;9.246;2024-01-15T18:51:31;37.18;32.01;47.54;;
1754;Laerm;58380;48.312;9.246;2024-01-15T18:54:31;34.39;30.70;43.39;;
1754;Laerm;58380;48.312;9.246;2024-01-15T18:57:32;35.56;30.34;49.19;;
1754;Laerm;58380;48.312;9.246;2024-01-15T19:00:32;33.53;29.53;41.95;;
1754;Laerm;58380;48.312;9.246;2024-01-15T19:03:32;32.80;29.10;39.47;;
1754;Laerm;58380;48.312;9.246;2024-01-15T19:06:33;34.18;29.93;43.19;;
1754;Laerm;58380;48.312;9.246;2024-01-15T19:09:33;32.84;28.82;44.86;;
1754;Laerm;58380;48.312;9.246;2024-01-15T19:12:34;38.75;29.67;61.55;;
1754;Laerm;58380;48.312;9.246;2024-01-15T19:15:34;32.40;29.01;50.38;;
1754;Laerm;58380;48.312;9.246;2024-01-15T19:18:35;33.14;29.70;41.08;;
1754;Laerm;58380;48.312;9.246;2024-01-15T19:21:36;35.35;29.47;46.92;;
1754;Laerm;58380;48.312;9.246;2024-01-15T19:24:36;33.60;29.22;52.93;;
1754;Laerm;58380;48.312;9.246;2024-01-15T19:27:38;35.26;28.87;44.95;;
1754;Laerm;58380;48.312;9.246;2024-01-15T19:30:43;32.29;28.86;46.30;;
1754;Laerm;58380;48.312;9.246;2024-01-15T19:33:43;36.06;29.93;48.02;;
1754;Laerm;58380;48.312;9.246;2024-01-15T19:36:44;35.50;30.04;47.46;;
1754;Laerm;58380;48.312;9.246;2024-01-15T19:39:44;33.94;28.96;45.36;;
1754;Laerm;58380;48.312;9.246;2024-01-15T19:42:45;33.76;28.76;46.64;;
1754;Laerm;58380;48.312;9.246;2024-01-15T19:45:45;33.64;29.44;45.33;;
1754;Laerm;58380;48.312;9.246;2024-01-15T19:48:45;33.81;29.44;43.66;;
1754;Laerm;58380;48.312;9.246;2024-01-15T19:51:46;37.09;29.53;49.01;;
1754;Laerm;58380;48.312;9.246;2024-01-15T19:54:46;32.86;29.59;46.90;;
1754;Laerm;58380;48.312;9.246;2024-01-15T19:57:49;37.28;29.88;48.64;;
1754;Laerm;58380;48.312;9.246;2024-01-15T20:00:50;31.84;28.34;41.84;;
1754;Laerm;58380;48.312;9.246;2024-01-15T20:03:50;31.54;28.95;42.59;;
1754;Laerm;58380;48.312;9.246;2024-01-15T20:06:51;39.11;32.35;53.21;;
1754;Laerm;58380;48.312;9.246;2024-01-15T20:09:51;38.61;31.98;47.94;;
1754;Laerm;58380;48.312;9.246;2024-01-15T20:12:51;39.19;29.90;52.80;;
1754;Laerm;58380;48.312;9.246;2024-01-15T20:15:52;35.96;30.00;44.91;;
1754;Laerm;58380;48.312;9.246;2024-01-15T20:18:52;39.78;29.57;50.96;;
1754;Laerm;58380;48.312;9.246;2024-01-15T20:21:52;40.81;30.59;52.97;;
1754;Laerm;58380;48.312;9.246;2024-01-15T20:24:53;34.61;29.48;51.21;;
1754;Laerm;58380;48.312;9.246;2024-01-15T20:27:53;39.44;30.72;51.78;;
1754;Laerm;58380;48.312;9.246;2024-01-15T20:30:54;36.17;29.62;49.79;;
1754;Laerm;58380;48.312;9.246;2024-01-15T20:33:54;36.56;29.71;51.29;;
1754;Laerm;58380;48.312;9.246;2024-01-15T20:36:54;36.02;29.87;56.56;;
1754;Laerm;58380;48.312;9.246;2024-01-15T20:39:55;39.88;29.71;59.87;;
1754;Laerm;58380;48.312;9.246;2024-01-15T20:42:55;40.21;29.71;58.43;;
1754;Laerm;58380;48.312;9.246;2024-01-15T20:45:56;40.76;31.70;61.83;;
1754;Laerm;58380;48.312;9.246;2024-01-15T20:48:56;35.94;30.07;56.08;;
1754;Laerm;58380;48.312;9.246;2024-01-15T20:51:56;31.89;29.04;39.33;;
1754;Laerm;58380;48.312;9.246;2024-01-15T20:54:58;33.62;29.44;45.75;;
1754;Laerm;58380;48.312;9.246;2024-01-15T20:57:58;33.58;29.14;45.64;;
1754;Laerm;58380;48.312;9.246;2024-01-15T21:00:58;32.97;28.46;43.32;;
1754;Laerm;58380;48.312;9.246;2024-01-15T21:03:59;36.67;30.96;44.55;;
1754;Laerm;58380;48.312;9.246;2024-01-15T21:07:00;34.74;29.71;47.35;;
1754;Laerm;58380;48.312;9.246;2024-01-15T21:10:00;33.04;28.54;42.15;;
1754;Laerm;58380;48.312;9.246;2024-01-15T21:13:01;38.91;28.91;56.99;;
1754;Laerm;58380;48.312;9.246;2024-01-15T21:16:01;40.21;32.75;50.87;;
1754;Laerm;58380;48.312;9.246;2024-01-15T21:19:02;35.45;28.99;46.01;;
1754;Laerm;58380;48.312;9.246;2024-01-15T21:22:11;32.43;28.67;41.56;;
1754;Laerm;58380;48.312;9.246;2024-01-15T21:25:11;32.05;28.95;40.21;;
1754;Laerm;58380;48.312;9.246;2024-01-15T21:28:12;30.90;28.21;40.86;;
1754;Laerm;58380;48.312;9.246;2024-01-15T21:31:12;36.93;29.42;49.66;;
1754;Laerm;58380;48.312;9.246;2024-01-15T21:34:13;36.23;31.77;49.76;;
1754;Laerm;58380;48.312;9.246;2024-01-15T21:37:16;37.09;28.61;50.51;;
1754;Laerm;58380;48.312;9.246;2024-01-15T21:40:16;32.11;28.33;43.95;;
1754;Laerm;58380;48.312;9.246;2024-01-15T21:43:16;34.76;29.40;42.64;;
1754;Laerm;58380;48.312;9.246;2024-01-15T21:46:17;38.95;29.48;49.75;;
1754;Laerm;58380;48.312;9.246;2024-01-15T21:49:17;34.97;29.60;43.14;;
1754;Laerm;58380;48.312;9.246;2024-01-15T21:52:18;31.10;28.38;39.21;;
